createdAt,value
2018-07-17T00:02:08.668Z,7.60
2018-07-17T00:04:37.604Z,8.70
2018-07-17T00:07:06.373Z,8.87
2018-07-17T00:09:35.289Z,8.23
2018-07-17T00:12:04.115Z,7.87
2018-07-17T00:14:32.921Z,8.97
2018-07-17T00:17:01.699Z,7.87
2018-07-17T00:19:30.503Z,8.60
2018-07-17T00:21:59.298Z,8.47
2018-07-17T00:24:28.101Z,9.17
2018-07-17T00:26:56.963Z,9.40
2018-07-17T00:29:25.750Z,8.70
2018-07-17T00:31:54.498Z,8.17
2018-07-17T00:34:23.254Z,8.33
2018-07-17T00:36:52.123Z,8.80
2018-07-17T00:39:20.898Z,9.13
2018-07-17T00:41:49.663Z,8.57
2018-07-17T00:44:18.483Z,8.20
2018-07-17T00:46:47.235Z,8.67
2018-07-17T00:49:16.003Z,9.20
2018-07-17T00:51:44.855Z,9.13
2018-07-17T00:54:13.665Z,8.20
2018-07-17T00:56:42.534Z,9.57
2018-07-17T00:59:11.306Z,9.83
2018-07-17T01:01:45.599Z,8.70
2018-07-17T01:04:19.978Z,9.60
2018-07-17T01:06:54.362Z,8.77
2018-07-17T01:09:28.687Z,10.30
2018-07-17T01:12:02.955Z,10.00
2018-07-17T01:14:36.439Z,9.77
2018-07-17T01:17:05.528Z,9.93
2018-07-17T01:19:34.310Z,10.20
2018-07-17T01:22:03.100Z,9.03
2018-07-17T01:24:31.998Z,10.57
2018-07-17T01:27:00.814Z,9.73
2018-07-17T01:29:29.676Z,10.23
2018-07-17T01:31:58.558Z,9.80
2018-07-17T01:34:27.454Z,9.70
2018-07-17T01:36:56.351Z,10.53
2018-07-17T01:39:25.189Z,9.63
2018-07-17T01:41:53.934Z,10.70
2018-07-17T01:44:22.806Z,9.23
2018-07-17T01:46:51.603Z,9.70
2018-07-17T01:49:20.494Z,10.03
2018-07-17T01:51:49.250Z,10.73
2018-07-17T01:54:18.073Z,10.80
2018-07-17T01:56:46.966Z,10.50
2018-07-17T01:59:15.754Z,11.10
2018-07-17T02:01:44.522Z,11.53
2018-07-17T02:04:13.316Z,11.00
2018-07-17T02:06:42.092Z,11.27
2018-07-17T02:09:11.019Z,12.20
2018-07-17T02:11:39.802Z,10.20
2018-07-17T02:14:08.595Z,10.73
2018-07-17T02:16:37.479Z,10.77
2018-07-17T02:19:06.322Z,10.63
2018-07-17T02:21:35.047Z,10.90
2018-07-17T02:24:03.851Z,11.17
2018-07-17T02:26:32.643Z,10.40
2018-07-17T02:29:01.467Z,11.20
2018-07-17T02:31:30.271Z,10.00
2018-07-17T02:33:59.062Z,9.80
2018-07-17T02:36:27.904Z,12.17
2018-07-17T02:38:56.710Z,10.53
2018-07-17T02:41:25.509Z,11.20
2018-07-17T02:43:54.370Z,11.90
2018-07-17T02:46:23.163Z,10.37
2018-07-17T02:48:51.930Z,10.90
2018-07-17T02:51:20.726Z,11.37
2018-07-17T02:53:49.499Z,11.73
2018-07-17T02:56:18.297Z,11.57
2018-07-17T02:58:47.202Z,11.43
2018-07-17T03:01:15.990Z,11.07
2018-07-17T03:03:44.767Z,11.30
2018-07-17T03:06:13.559Z,10.70
2018-07-17T03:08:42.367Z,10.97
2018-07-17T03:11:11.195Z,11.03
2018-07-17T03:13:39.946Z,11.00
2018-07-17T03:16:08.755Z,10.50
2018-07-17T03:18:37.567Z,11.03
2018-07-17T03:21:06.334Z,10.37
2018-07-17T03:23:35.147Z,10.00
2018-07-17T03:26:03.987Z,11.33
2018-07-17T03:28:32.778Z,11.10
2018-07-17T03:31:01.554Z,11.13
2018-07-17T03:33:30.346Z,11.40
2018-07-17T03:35:59.142Z,11.30
2018-07-17T03:38:27.899Z,10.63
2018-07-17T03:40:56.715Z,10.97
2018-07-17T03:43:25.488Z,11.63
2018-07-17T03:45:54.278Z,11.50
2018-07-17T03:48:23.103Z,11.33
2018-07-17T03:50:51.883Z,12.00
2018-07-17T03:53:20.710Z,11.87
2018-07-17T03:55:49.554Z,12.17
2018-07-17T03:58:18.418Z,11.77
2018-07-17T04:00:47.199Z,12.07
2018-07-17T04:03:15.998Z,10.27
2018-07-17T04:05:44.820Z,11.80
2018-07-17T04:08:14.450Z,11.57
2018-07-17T04:10:43.258Z,11.30
2018-07-17T04:13:12.157Z,11.73
2018-07-17T04:15:41.020Z,11.87
2018-07-17T04:18:10.918Z,12.07
2018-07-17T04:20:40.823Z,11.30
2018-07-17T04:23:10.970Z,10.23
2018-07-17T04:25:39.863Z,11.63
2018-07-17T04:28:08.635Z,13.33
2018-07-17T04:30:37.523Z,11.20
2018-07-17T04:33:06.442Z,11.30
2018-07-17T04:35:35.198Z,12.80
2018-07-17T04:38:03.794Z,12.77
2018-07-17T04:40:32.455Z,12.37
2018-07-17T04:43:01.246Z,12.20
2018-07-17T04:45:30.003Z,12.03
2018-07-17T04:47:58.958Z,11.77
2018-07-17T04:50:27.737Z,11.20
2018-07-17T04:52:56.542Z,11.50
2018-07-17T04:55:25.365Z,11.77
2018-07-17T04:57:54.126Z,12.53
2018-07-17T05:00:22.930Z,11.47
2018-07-17T05:02:51.723Z,11.23
2018-07-17T05:05:20.624Z,10.90
2018-07-17T05:07:49.454Z,10.83
2018-07-17T05:10:18.227Z,10.50
2018-07-17T05:12:47.081Z,11.60
2018-07-17T05:15:15.790Z,12.13
2018-07-17T05:17:44.640Z,11.53
2018-07-17T05:20:13.991Z,11.13
2018-07-17T05:22:42.800Z,11.60
2018-07-17T05:25:11.658Z,11.37
2018-07-17T05:27:40.503Z,10.60
2018-07-17T05:30:09.268Z,10.83
2018-07-17T05:32:38.051Z,11.27
2018-07-17T05:35:06.907Z,10.70
2018-07-17T05:37:35.618Z,11.27
2018-07-17T05:40:05.165Z,12.27
2018-07-17T05:42:34.074Z,14.97
2018-07-17T05:45:02.867Z,11.37
2018-07-17T05:47:38.707Z,12.90
2018-07-17T05:50:07.686Z,11.37
2018-07-17T05:52:36.587Z,11.67
2018-07-17T05:55:05.466Z,13.40
2018-07-17T05:57:34.288Z,12.37
2018-07-17T06:00:03.071Z,12.10
2018-07-17T06:02:31.936Z,11.43
2018-07-17T06:05:00.699Z,11.63
2018-07-17T06:07:29.495Z,11.30
2018-07-17T06:09:58.262Z,11.80
2018-07-17T06:12:27.097Z,11.57
2018-07-17T06:14:55.885Z,9.90
2018-07-17T06:17:24.781Z,10.30
2018-07-17T06:19:53.778Z,11.97
2018-07-17T06:22:22.673Z,10.83
2018-07-17T06:24:51.535Z,10.90
2018-07-17T06:27:20.134Z,10.23
2018-07-17T06:29:48.832Z,10.53
2018-07-17T06:32:17.724Z,10.90
2018-07-17T06:34:46.623Z,12.73
2018-07-17T06:37:15.879Z,9.97
2018-07-17T06:39:44.634Z,9.43
2018-07-17T06:42:13.598Z,10.83
2018-07-17T06:44:42.414Z,10.33
2018-07-17T06:47:11.339Z,9.63
2018-07-17T06:49:40.334Z,9.50
2018-07-17T06:52:09.645Z,9.23
2018-07-17T06:54:38.667Z,9.90
2018-07-17T06:57:07.454Z,9.93
2018-07-17T06:59:36.238Z,9.70
2018-07-17T07:02:05.015Z,8.23
2018-07-17T07:04:33.773Z,9.30
2018-07-17T07:07:02.546Z,8.07
2018-07-17T07:09:31.345Z,8.00
2018-07-17T07:12:00.078Z,7.40
2018-07-17T07:14:28.987Z,8.37
2018-07-17T07:16:57.719Z,8.43
2018-07-17T07:19:26.559Z,7.57
2018-07-17T07:21:55.322Z,8.17
2018-07-17T07:24:23.939Z,7.50
2018-07-17T07:26:52.606Z,7.20
2018-07-17T07:29:21.386Z,7.93
2018-07-17T07:31:50.198Z,7.70
2018-07-17T07:34:19.086Z,7.17
2018-07-17T07:36:47.895Z,7.97
2018-07-17T07:39:16.690Z,7.73
2018-07-17T07:41:45.503Z,7.00
2018-07-17T07:44:14.458Z,8.33
2018-07-17T07:46:43.228Z,10.63
2018-07-17T07:49:12.059Z,7.07
2018-07-17T07:51:40.910Z,6.83
2018-07-17T07:54:09.675Z,6.90
2018-07-17T07:56:38.457Z,6.87
2018-07-17T07:59:07.290Z,8.07
2018-07-17T08:01:36.195Z,7.60
2018-07-17T08:04:05.060Z,7.33
2018-07-17T08:06:33.789Z,7.50
2018-07-17T08:09:02.782Z,6.53
2018-07-17T08:11:31.812Z,6.80
2018-07-17T08:14:00.905Z,6.60
2018-07-17T08:16:30.119Z,7.53
2018-07-17T08:18:59.216Z,6.70
2018-07-17T08:21:28.043Z,6.60
2018-07-17T08:23:56.878Z,6.80
2018-07-17T08:26:25.762Z,7.53
2018-07-17T08:28:54.742Z,6.90
2018-07-17T08:31:23.701Z,8.77
2018-07-17T08:33:52.769Z,7.70
2018-07-17T08:36:21.498Z,7.80
2018-07-17T08:38:50.307Z,7.70
2018-07-17T08:41:19.070Z,7.60
2018-07-17T08:43:47.886Z,7.83
2018-07-17T08:46:16.656Z,7.60
2018-07-17T08:48:45.424Z,7.77
2018-07-17T08:51:14.053Z,6.70
2018-07-17T08:53:42.738Z,8.13
2018-07-17T08:56:11.546Z,7.93
2018-07-17T08:58:40.298Z,7.73
2018-07-17T09:01:09.432Z,7.90
2018-07-17T09:03:38.273Z,8.60
2018-07-17T09:06:07.190Z,9.07
2018-07-17T09:08:36.099Z,9.43
2018-07-17T09:11:04.884Z,8.97
2018-07-17T09:13:33.631Z,8.40
2018-07-17T09:16:02.446Z,8.13
2018-07-17T09:18:31.241Z,8.80
2018-07-17T09:21:00.276Z,8.43
2018-07-17T09:23:29.019Z,8.60
2018-07-17T09:25:57.819Z,9.10
2018-07-17T09:28:26.590Z,8.60
2018-07-17T09:30:58.450Z,7.40
2018-07-17T09:33:27.585Z,8.77
2018-07-17T09:35:56.353Z,7.97
2018-07-17T09:38:25.180Z,8.17
2018-07-17T09:40:54.300Z,8.20
2018-07-17T09:43:22.921Z,8.50
2018-07-17T09:45:51.628Z,8.30
2018-07-17T09:48:20.387Z,8.80
2018-07-17T09:50:49.179Z,8.60
2018-07-17T09:53:18.017Z,8.47
2018-07-17T09:55:46.864Z,7.67
2018-07-17T09:58:15.639Z,8.70
2018-07-17T10:00:49.894Z,7.87
2018-07-17T10:03:18.651Z,9.00
2018-07-17T10:05:47.494Z,8.43
2018-07-17T10:08:16.307Z,8.13
2018-07-17T10:10:45.174Z,7.47
2018-07-17T10:13:13.938Z,8.07
2018-07-17T10:15:42.719Z,7.90
2018-07-17T10:18:11.903Z,8.00
2018-07-17T10:20:40.675Z,8.87
2018-07-17T10:23:09.480Z,8.00
2018-07-17T10:25:38.250Z,7.50
2018-07-17T10:28:07.064Z,8.17
2018-07-17T10:30:35.832Z,7.70
2018-07-17T10:33:04.744Z,7.67
2018-07-17T10:35:33.673Z,7.20
2018-07-17T10:38:02.560Z,7.20
2018-07-17T10:40:31.336Z,7.03
2018-07-17T10:43:00.093Z,8.37
2018-07-17T10:45:28.994Z,8.07
2018-07-17T10:47:57.764Z,7.40
2018-07-17T10:50:26.566Z,7.20
2018-07-17T10:52:55.410Z,7.40
2018-07-17T10:55:24.363Z,7.50
2018-07-17T10:57:53.150Z,7.90
2018-07-17T11:00:22.039Z,7.40
2018-07-17T11:02:51.031Z,7.87
2018-07-17T11:05:20.027Z,7.27
2018-07-17T11:07:48.841Z,7.60
2018-07-17T11:10:17.842Z,6.80
2018-07-17T11:12:46.694Z,7.60
2018-07-17T11:15:15.475Z,7.20
2018-07-17T11:17:44.278Z,8.20
2018-07-17T11:20:13.035Z,7.70
2018-07-17T11:22:41.818Z,7.63
2018-07-17T11:25:10.578Z,7.40
2018-07-17T11:27:39.382Z,7.07
2018-07-17T11:30:08.317Z,8.20
2018-07-17T11:32:37.165Z,8.53
2018-07-17T11:35:06.326Z,8.50
2018-07-17T11:37:35.475Z,7.50
2018-07-17T11:40:04.482Z,6.93
2018-07-17T11:42:33.246Z,8.10
2018-07-17T11:45:01.863Z,8.17
2018-07-17T11:47:30.593Z,7.80
2018-07-17T11:49:59.332Z,7.90
2018-07-17T11:52:28.097Z,8.60
2018-07-17T11:54:56.851Z,8.40
2018-07-17T11:57:25.641Z,8.70
2018-07-17T11:59:54.390Z,7.90
2018-07-17T12:02:23.171Z,7.70
2018-07-17T12:04:52.055Z,8.40
2018-07-17T12:07:20.841Z,8.30
2018-07-17T12:09:49.597Z,8.37
2018-07-17T12:12:18.386Z,7.60
2018-07-17T12:14:47.159Z,7.70
2018-07-17T12:17:15.938Z,8.53
2018-07-17T12:19:44.813Z,9.23
2018-07-17T12:22:13.714Z,7.90
2018-07-17T12:24:42.479Z,7.50
2018-07-17T12:27:11.488Z,7.80
2018-07-17T12:29:40.258Z,8.60
2018-07-17T12:32:09.052Z,8.40
2018-07-17T12:34:37.811Z,7.80
2018-07-17T12:37:06.634Z,8.80
2018-07-17T12:39:35.386Z,8.33
2018-07-17T12:42:04.211Z,8.00
2018-07-17T12:44:32.985Z,8.77
2018-07-17T12:47:01.792Z,8.50
2018-07-17T12:49:30.678Z,8.30
2018-07-17T12:51:59.420Z,8.50
2018-07-17T12:54:28.191Z,8.77
2018-07-17T12:56:57.201Z,8.10
2018-07-17T12:59:25.971Z,8.50
2018-07-17T13:01:54.754Z,8.07
2018-07-17T13:04:23.636Z,7.60
2018-07-17T13:06:52.448Z,8.67
2018-07-17T13:09:21.267Z,8.67
2018-07-17T13:11:50.063Z,9.30
2018-07-17T13:14:18.666Z,7.83
2018-07-17T13:16:47.354Z,8.47
2018-07-17T13:19:16.157Z,7.63
2018-07-17T13:21:45.054Z,7.63
2018-07-17T13:24:13.957Z,7.53
2018-07-17T13:26:42.776Z,7.63
2018-07-17T13:29:11.609Z,8.70
2018-07-17T13:31:40.411Z,8.10
2018-07-17T13:34:09.222Z,8.00
2018-07-17T13:36:38.089Z,7.43
2018-07-17T13:39:09.274Z,8.50
2018-07-17T13:41:38.114Z,7.40
2018-07-17T13:44:06.889Z,7.90
2018-07-17T13:46:35.679Z,7.60
2018-07-17T13:49:04.630Z,8.00
2018-07-17T13:51:33.382Z,7.77
2018-07-17T13:54:02.299Z,7.03
2018-07-17T13:56:31.166Z,7.73
2018-07-17T13:58:59.951Z,7.70
2018-07-17T14:01:28.737Z,7.97
2018-07-17T14:03:57.555Z,8.17
2018-07-17T14:06:26.410Z,7.53
2018-07-17T14:08:55.029Z,7.30
2018-07-17T14:11:23.590Z,7.20
2018-07-17T14:13:52.291Z,7.43
2018-07-17T14:16:21.038Z,8.63
2018-07-17T14:18:49.880Z,8.47
2018-07-17T14:21:18.665Z,8.50
2018-07-17T14:23:47.550Z,8.10
2018-07-17T14:26:16.271Z,9.10
2018-07-17T14:28:45.032Z,7.90
2018-07-17T14:31:13.771Z,8.40
2018-07-17T14:33:42.644Z,9.67
2018-07-17T14:36:11.391Z,7.83
2018-07-17T14:38:40.288Z,8.77
2018-07-17T14:41:09.042Z,7.20
2018-07-17T14:43:37.637Z,8.53
2018-07-17T14:46:06.111Z,8.00
2018-07-17T14:48:37.598Z,8.47
2018-07-17T14:51:10.830Z,9.00
2018-07-17T14:53:39.686Z,8.80
2018-07-17T14:56:08.768Z,8.87
2018-07-17T14:58:37.650Z,8.50
2018-07-17T15:01:06.699Z,8.33
2018-07-17T15:03:35.771Z,10.03
2018-07-17T15:06:04.734Z,8.60
2018-07-17T15:08:33.536Z,8.30
2018-07-17T15:11:02.435Z,10.03
2018-07-17T15:13:31.363Z,9.70
2018-07-17T15:16:00.262Z,8.90
2018-07-17T15:18:29.074Z,9.50
2018-07-17T15:20:57.702Z,10.03
2018-07-17T15:23:26.483Z,10.60
2018-07-17T15:25:55.270Z,9.77
2018-07-17T15:28:24.883Z,9.47
2018-07-17T15:30:53.662Z,10.87
2018-07-17T15:33:22.418Z,9.77
2018-07-17T15:35:51.288Z,10.10
2018-07-17T15:38:20.049Z,10.67
2018-07-17T15:40:48.802Z,10.90
2018-07-17T15:43:17.562Z,9.40
2018-07-17T15:45:46.455Z,10.80
2018-07-17T15:48:15.158Z,9.63
2018-07-17T15:50:47.042Z,10.53
2018-07-17T15:53:15.634Z,9.80
2018-07-17T15:55:44.216Z,9.27
2018-07-17T15:58:12.742Z,10.23
2018-07-17T16:00:41.481Z,10.63
2018-07-17T16:03:10.234Z,10.03
2018-07-17T16:05:39.058Z,9.17
2018-07-17T16:08:07.852Z,9.37
2018-07-17T16:10:36.773Z,9.20
2018-07-17T16:13:05.515Z,8.93
2018-07-17T16:15:34.224Z,9.80
2018-07-17T16:18:02.813Z,9.97
2018-07-17T16:20:31.538Z,10.17
2018-07-17T16:23:00.306Z,10.90
2018-07-17T16:25:29.218Z,10.30
2018-07-17T16:27:58.166Z,10.30
2018-07-17T16:30:27.512Z,10.00
2018-07-17T16:32:56.358Z,9.90
2018-07-17T16:35:25.478Z,10.93
2018-07-17T16:37:54.543Z,9.80
2018-07-17T16:40:23.366Z,10.80
2018-07-17T16:42:52.225Z,10.77
2018-07-17T16:45:21.017Z,11.30
2018-07-17T16:47:49.778Z,10.37
2018-07-17T16:50:18.443Z,9.33
2018-07-17T16:52:47.082Z,10.43
2018-07-17T16:55:16.007Z,10.07
2018-07-17T16:57:44.770Z,10.10
2018-07-17T17:00:13.558Z,9.43
2018-07-17T17:02:42.339Z,10.40
2018-07-17T17:05:11.251Z,10.40
2018-07-17T17:07:40.049Z,9.60
2018-07-17T17:10:08.858Z,8.90
2018-07-17T17:12:37.651Z,10.43
2018-07-17T17:15:06.533Z,9.00
2018-07-17T17:17:35.432Z,9.57
2018-07-17T17:20:04.335Z,11.20
2018-07-17T17:22:33.211Z,9.73
2018-07-17T17:25:01.992Z,10.17
2018-07-17T17:27:30.864Z,10.10
2018-07-17T17:29:59.599Z,10.10
2018-07-17T17:32:28.417Z,10.87
2018-07-17T17:34:57.249Z,12.07
2018-07-17T17:37:26.139Z,13.70
2018-07-17T17:39:54.961Z,12.00
2018-07-17T17:42:23.710Z,11.67
2018-07-17T17:44:52.482Z,11.20
2018-07-17T17:47:21.275Z,11.93
2018-07-17T17:49:50.002Z,13.33
2018-07-17T17:52:18.669Z,10.50
2018-07-17T17:54:47.439Z,12.00
2018-07-17T17:57:16.038Z,11.60
2018-07-17T17:59:44.942Z,11.10
2018-07-17T18:02:13.808Z,13.33
2018-07-17T18:04:42.417Z,15.10
2018-07-17T18:07:11.380Z,10.70
2018-07-17T18:09:40.066Z,11.30
2018-07-17T18:12:08.994Z,12.30
2018-07-17T18:14:37.722Z,12.17
2018-07-17T18:17:06.533Z,12.23
2018-07-17T18:19:35.442Z,11.83
2018-07-17T18:22:04.237Z,12.17
2018-07-17T18:24:33.097Z,12.40
2018-07-17T18:27:01.773Z,11.93
2018-07-17T18:29:30.379Z,11.70
2018-07-17T18:31:59.160Z,11.77
2018-07-17T18:34:27.775Z,12.10
2018-07-17T18:36:56.441Z,13.10
2018-07-17T18:39:25.246Z,12.47
2018-07-17T18:41:54.115Z,12.53
2018-07-17T18:44:22.900Z,12.10
2018-07-17T18:46:51.742Z,11.17
2018-07-17T18:49:20.196Z,12.27
2018-07-17T18:51:48.798Z,13.80
2018-07-17T18:54:17.492Z,10.90
2018-07-17T18:56:46.330Z,12.70
2018-07-17T18:59:14.990Z,13.57
2018-07-17T19:01:43.743Z,12.60
2018-07-17T19:04:12.555Z,12.50
2018-07-17T19:06:41.454Z,11.67
2018-07-17T19:09:10.722Z,11.97
2018-07-17T19:11:39.801Z,12.33
2018-07-17T19:14:08.610Z,11.00
2018-07-17T19:16:37.909Z,11.90
2018-07-17T19:19:06.967Z,12.97
2018-07-17T19:21:35.729Z,11.27
2018-07-17T19:24:05.143Z,12.10
2018-07-17T19:26:34.106Z,12.10
2018-07-17T19:29:02.995Z,11.97
2018-07-17T19:31:31.803Z,11.13
2018-07-17T19:34:00.674Z,12.50
2018-07-17T19:36:29.501Z,11.73
2018-07-17T19:38:58.351Z,11.70
2018-07-17T19:41:27.145Z,11.80
2018-07-17T19:43:56.024Z,12.40
2018-07-17T19:46:25.380Z,11.97
2018-07-17T19:48:55.201Z,11.97
2018-07-17T19:51:24.134Z,12.03
2018-07-17T19:53:53.018Z,12.50
2018-07-17T19:56:21.921Z,11.87
2018-07-17T19:58:51.288Z,11.50
2018-07-17T20:01:21.379Z,12.57
2018-07-17T20:03:50.226Z,11.80
2018-07-17T20:06:19.123Z,11.83
2018-07-17T20:08:48.027Z,19.10
2018-07-17T20:11:16.906Z,13.53
2018-07-17T20:13:45.714Z,11.83
2018-07-17T20:16:14.500Z,12.30
2018-07-17T20:18:43.422Z,12.27
2018-07-17T20:21:12.210Z,12.10
2018-07-17T20:23:41.051Z,11.80
2018-07-17T20:26:09.860Z,11.60
2018-07-17T20:28:38.738Z,11.80
2018-07-17T20:31:07.763Z,12.77
2018-07-17T20:33:36.796Z,12.40
2018-07-17T20:36:05.534Z,12.00
2018-07-17T20:38:34.410Z,11.90
2018-07-17T20:41:03.176Z,11.90
2018-07-17T20:43:31.967Z,11.37
2018-07-17T20:46:00.784Z,11.87
2018-07-17T20:48:29.765Z,12.30
2018-07-17T20:50:58.638Z,13.20
2018-07-17T20:53:27.474Z,12.63
2018-07-17T20:55:56.246Z,13.07
2018-07-17T20:58:25.033Z,12.23
2018-07-17T21:00:53.838Z,12.60
2018-07-17T21:03:22.610Z,12.53
2018-07-17T21:05:51.379Z,11.70
2018-07-17T21:08:20.167Z,12.47
2018-07-17T21:10:48.957Z,11.43
2018-07-17T21:13:17.875Z,10.80
2018-07-17T21:15:46.531Z,10.47
2018-07-17T21:18:15.438Z,11.47
2018-07-17T21:20:44.224Z,11.07
2018-07-17T21:23:13.018Z,10.40
2018-07-17T21:25:41.815Z,10.40
2018-07-17T21:28:10.707Z,10.00
2018-07-17T21:30:39.482Z,10.00
2018-07-17T21:33:08.287Z,10.03
2018-07-17T21:35:37.126Z,8.30
2018-07-17T21:38:05.914Z,9.60
2018-07-17T21:40:34.556Z,8.90
2018-07-17T21:43:03.224Z,9.07
2018-07-17T21:45:32.017Z,8.27
2018-07-17T21:48:01.062Z,8.93
2018-07-17T21:50:29.875Z,9.30
2018-07-17T21:52:58.742Z,8.40
2018-07-17T21:55:27.533Z,8.37
2018-07-17T21:57:56.326Z,7.97
2018-07-17T22:00:25.165Z,9.10
2018-07-17T22:02:53.915Z,9.20
2018-07-17T22:05:22.742Z,9.47
2018-07-17T22:07:51.848Z,9.60
2018-07-17T22:10:20.634Z,9.30
2018-07-17T22:12:49.419Z,11.03
2018-07-17T22:15:18.392Z,10.20
2018-07-17T22:17:47.114Z,10.20
2018-07-17T22:20:15.986Z,12.00
2018-07-17T22:22:44.789Z,12.37
2018-07-17T22:25:13.674Z,12.67
2018-07-17T22:27:42.507Z,13.13
2018-07-17T22:30:11.368Z,11.30
2018-07-17T22:32:40.130Z,12.20
2018-07-17T22:35:08.978Z,12.43
2018-07-17T22:37:37.734Z,14.20
2018-07-17T22:40:06.615Z,13.30
2018-07-17T22:42:35.407Z,12.90
2018-07-17T22:45:04.398Z,13.07
2018-07-17T22:47:33.227Z,13.80
2018-07-17T22:50:02.070Z,13.77
2018-07-17T22:52:30.827Z,13.47
2018-07-17T22:54:59.665Z,12.60
2018-07-17T22:57:28.423Z,13.33
2018-07-17T22:59:57.278Z,12.70
2018-07-17T23:02:26.011Z,13.33
2018-07-17T23:04:54.814Z,13.50
2018-07-17T23:07:23.707Z,13.40
2018-07-17T23:09:52.490Z,12.73
2018-07-17T23:12:21.265Z,13.57
2018-07-17T23:14:50.113Z,12.80
2018-07-17T23:17:18.854Z,12.50
2018-07-17T23:19:47.752Z,12.93
2018-07-17T23:22:22.389Z,13.57
2018-07-17T23:24:51.319Z,13.70
2018-07-17T23:27:20.170Z,12.87
2018-07-17T23:29:48.958Z,13.30
2018-07-17T23:32:17.710Z,12.43
2018-07-17T23:34:46.579Z,13.23
2018-07-17T23:37:15.318Z,13.73
2018-07-17T23:39:44.423Z,13.87
2018-07-17T23:42:13.208Z,15.17
2018-07-17T23:44:42.119Z,14.13
2018-07-17T23:47:10.858Z,15.07
2018-07-17T23:49:39.650Z,13.87
2018-07-17T23:52:08.629Z,13.73
2018-07-17T23:54:37.454Z,14.73
2018-07-17T23:57:06.367Z,15.10
2018-07-17T23:59:35.242Z,14.43
